Time;durP1;ratioP1;P1;durP2;ratioP2;P2;SDS_P1;SDS_P2;PMS_P1;PMS_P2;Temp;Humidity;BMP_temperature;BMP_pressure;BME280_temperature;BME280_humidity;BME280_pressure;Samples;Min_cycle;Max_cycle;Signal;HPM_P1;HPM_P2
2022/09/25 00:01:40;;;;;;;;;;;21.50;51.80;;;;;;486863;244;2190;-74
2022/09/25 00:03:41;;;;;;;;;;;21.60;51.80;;;;;;486837;245;1046;-74
2022/09/25 00:05:44;;;;;;;;;;;21.60;51.80;;;;;;486827;244;1055;-74
2022/09/25 00:07:44;;;;;;;;;;;21.50;51.90;;;;;;486886;245;1430;-74
2022/09/25 00:09:45;;;;;;;;;;;21.50;51.90;;;;;;486860;244;1140;-74
2022/09/25 00:11:47;;;;;;;;;;;21.60;51.80;;;;;;486851;245;1071;-74
2022/09/25 00:13:48;;;;;;;;;;;21.60;51.90;;;;;;486876;244;1272;-74
2022/09/25 00:15:49;;;;;;;;;;;21.60;51.70;;;;;;487071;244;1106;-74
2022/09/25 00:17:51;;;;;;;;;;;21.60;51.70;;;;;;487052;244;1023;-74
2022/09/25 00:19:52;;;;;;;;;;;21.60;51.70;;;;;;486898;244;1107;-74
2022/09/25 00:21:53;;;;;;;;;;;21.60;51.80;;;;;;486845;245;2175;-74
2022/09/25 00:23:55;;;;;;;;;;;21.60;51.70;;;;;;486856;244;1167;-74
2022/09/25 00:25:58;;;;;;;;;;;21.60;51.70;;;;;;486867;245;1163;-74
2022/09/25 00:27:57;;;;;;;;;;;21.60;51.80;;;;;;486769;245;1486;-74
2022/09/25 00:29:59;;;;;;;;;;;21.60;51.80;;;;;;486891;244;1212;-74
2022/09/25 00:32:00;;;;;;;;;;;21.60;51.80;;;;;;486884;245;1217;-74
2022/09/25 00:34:01;;;;;;;;;;;21.60;51.80;;;;;;486851;244;1147;-74
2022/09/25 00:36:05;;;;;;;;;;;21.60;51.80;;;;;;486829;245;1119;-74
2022/09/25 00:38:05;;;;;;;;;;;21.60;51.80;;;;;;486884;244;1400;-74
2022/09/25 00:40:06;;;;;;;;;;;21.60;51.80;;;;;;486912;244;2155;-74
2022/09/25 00:42:07;;;;;;;;;;;21.60;51.80;;;;;;486849;245;1124;-74
2022/09/25 00:44:09;;;;;;;;;;;21.60;51.80;;;;;;486765;245;1149;-74
2022/09/25 00:46:10;;;;;;;;;;;21.60;51.90;;;;;;486972;244;1075;-74
2022/09/25 00:48:11;;;;;;;;;;;21.50;51.90;;;;;;486873;245;1170;-74
2022/09/25 00:50:15;;;;;;;;;;;21.60;51.80;;;;;;486822;245;1072;-74
2022/09/25 00:52:14;;;;;;;;;;;21.60;51.80;;;;;;486740;245;1506;-74
2022/09/25 00:54:16;;;;;;;;;;;21.60;51.80;;;;;;487010;244;1699;-74
2022/09/25 00:56:17;;;;;;;;;;;21.60;51.70;;;;;;487038;244;1110;-74
2022/09/25 00:58:18;;;;;;;;;;;21.60;51.80;;;;;;486845;245;1073;-74
2022/09/25 01:00:20;;;;;;;;;;;21.50;51.90;;;;;;486886;244;2182;-74
2022/09/25 01:02:21;;;;;;;;;;;21.60;51.90;;;;;;486978;244;1165;-74
2022/09/25 01:04:22;;;;;;;;;;;21.50;52.10;;;;;;486876;245;1140;-74
2022/09/25 01:06:24;;;;;;;;;;;21.50;52.10;;;;;;486999;244;1239;-74
2022/09/25 01:08:25;;;;;;;;;;;21.50;52.00;;;;;;486927;245;1098;-73
2022/09/25 01:10:26;;;;;;;;;;;21.60;51.90;;;;;;486807;244;1106;-74
2022/09/25 01:12:28;;;;;;;;;;;21.60;51.80;;;;;;486835;245;1192;-74
2022/09/25 01:14:30;;;;;;;;;;;21.60;51.70;;;;;;486875;245;1173;-74
2022/09/25 01:16:30;;;;;;;;;;;21.60;51.70;;;;;;486730;245;1558;-74
2022/09/25 01:18:33;;;;;;;;;;;21.60;51.60;;;;;;486790;244;1179;-74
2022/09/25 01:20:33;;;;;;;;;;;21.70;51.50;;;;;;486748;245;2203;-74
2022/09/25 01:22:34;;;;;;;;;;;21.70;51.70;;;;;;486742;245;1194;-74
2022/09/25 01:24:36;;;;;;;;;;;21.60;51.70;;;;;;486931;244;1206;-74
2022/09/25 01:26:37;;;;;;;;;;;21.70;51.70;;;;;;486788;245;1143;-74
2022/09/25 01:28:39;;;;;;;;;;;21.60;51.70;;;;;;486961;244;1198;-75
2022/09/25 01:30:40;;;;;;;;;;;21.60;51.70;;;;;;486831;244;1164;-74
2022/09/25 01:32:41;;;;;;;;;;;21.60;51.80;;;;;;486849;245;1198;-74
2022/09/25 01:34:42;;;;;;;;;;;21.60;51.70;;;;;;486773;245;1200;-74
2022/09/25 01:36:44;;;;;;;;;;;21.60;51.70;;;;;;486866;245;1133;-74
2022/09/25 01:38:45;;;;;;;;;;;21.60;51.50;;;;;;486859;245;1197;-74
2022/09/25 01:40:47;;;;;;;;;;;21.70;51.60;;;;;;486882;244;2158;-74
2022/09/25 01:42:48;;;;;;;;;;;21.70;51.60;;;;;;486958;245;1166;-74
2022/09/25 01:44:50;;;;;;;;;;;21.70;51.50;;;;;;486903;244;1012;-74
2022/09/25 01:46:51;;;;;;;;;;;21.70;51.60;;;;;;486844;245;1125;-74
2022/09/25 01:48:53;;;;;;;;;;;21.70;51.60;;;;;;486811;245;1163;-74
2022/09/25 01:50:54;;;;;;;;;;;21.70;51.50;;;;;;486850;245;1198;-74
2022/09/25 01:52:55;;;;;;;;;;;21.70;51.50;;;;;;486844;245;1174;-74
2022/09/25 01:54:57;;;;;;;;;;;21.70;51.60;;;;;;486840;244;1209;-74
2022/09/25 01:56:58;;;;;;;;;;;21.70;51.50;;;;;;486874;245;1602;-74
2022/09/25 01:58:59;;;;;;;;;;;21.70;51.50;;;;;;486989;244;1138;-74
2022/09/25 02:01:00;;;;;;;;;;;21.70;51.50;;;;;;486941;244;2151;-74
2022/09/25 02:03:02;;;;;;;;;;;21.70;51.60;;;;;;486823;244;1167;-74
2022/09/25 02:05:03;;;;;;;;;;;21.70;51.50;;;;;;486926;244;1198;-74
2022/09/25 02:07:04;;;;;;;;;;;21.70;51.50;;;;;;486914;244;1331;-75
2022/09/25 02:09:06;;;;;;;;;;;21.70;51.50;;;;;;486786;245;1157;-74
2022/09/25 02:11:07;;;;;;;;;;;21.60;51.60;;;;;;486817;244;1145;-74
2022/09/25 02:13:08;;;;;;;;;;;21.60;51.60;;;;;;486897;244;1173;-74
2022/09/25 02:15:10;;;;;;;;;;;21.60;51.60;;;;;;486836;245;1155;-74
2022/09/25 02:17:11;;;;;;;;;;;21.70;51.60;;;;;;486887;245;1229;-74
2022/09/25 02:21:31;;;;;;;;;;;21.60;51.50;;;;;;486839;245;2167;-74
2022/09/25 02:23:33;;;;;;;;;;;21.60;51.50;;;;;;487031;244;1232;-74
2022/09/25 02:25:34;;;;;;;;;;;21.60;51.50;;;;;;486799;245;1220;-74
2022/09/25 02:27:36;;;;;;;;;;;21.60;51.50;;;;;;486773;244;1194;-74
2022/09/25 02:29:37;;;;;;;;;;;21.60;51.60;;;;;;486893;244;1162;-74
2022/09/25 02:31:39;;;;;;;;;;;21.60;51.50;;;;;;486945;244;1196;-74
2022/09/25 02:33:39;;;;;;;;;;;21.60;51.50;;;;;;486824;245;1547;-74
2022/09/25 02:35:41;;;;;;;;;;;21.60;51.50;;;;;;486802;245;1161;-74
2022/09/25 02:37:42;;;;;;;;;;;21.70;51.50;;;;;;486802;244;1178;-74
2022/09/25 02:39:44;;;;;;;;;;;21.60;51.40;;;;;;486835;244;1227;-74
2022/09/25 02:41:45;;;;;;;;;;;21.60;51.50;;;;;;486950;244;2146;-74
2022/09/25 02:43:46;;;;;;;;;;;21.60;51.50;;;;;;486750;245;1216;-74
2022/09/25 02:45:49;;;;;;;;;;;21.50;51.40;;;;;;486821;245;1207;-74
2022/09/25 02:47:50;;;;;;;;;;;21.60;51.50;;;;;;486775;244;1395;-74
2022/09/25 02:49:51;;;;;;;;;;;21.60;51.50;;;;;;486822;244;1142;-74
2022/09/25 02:51:52;;;;;;;;;;;21.60;51.50;;;;;;486708;244;1366;-74
2022/09/25 02:53:54;;;;;;;;;;;21.50;51.40;;;;;;486878;244;1188;-74
2022/09/25 02:55:55;;;;;;;;;;;21.50;51.60;;;;;;486676;244;1132;-74
2022/09/25 02:57:56;;;;;;;;;;;21.50;51.50;;;;;;486965;244;1344;-74
2022/09/25 02:59:58;;;;;;;;;;;21.50;51.60;;;;;;486869;244;1226;-74
2022/09/25 03:01:59;;;;;;;;;;;21.50;51.70;;;;;;486632;245;2190;-74
2022/09/25 03:04:00;;;;;;;;;;;21.50;51.70;;;;;;486878;245;1239;-74
2022/09/25 03:06:02;;;;;;;;;;;21.60;51.60;;;;;;486736;245;1507;-74
2022/09/25 03:10:22;;;;;;;;;;;21.60;51.50;;;;;;486839;245;1150;-74
2022/09/25 03:12:24;;;;;;;;;;;21.60;51.50;;;;;;486894;244;1174;-74
2022/09/25 03:14:25;;;;;;;;;;;21.70;51.50;;;;;;486810;245;1147;-74
2022/09/25 03:16:26;;;;;;;;;;;21.70;51.30;;;;;;487057;244;1138;-74
2022/09/25 03:18:28;;;;;;;;;;;21.70;51.30;;;;;;486799;245;1220;-74
2022/09/25 03:20:29;;;;;;;;;;;21.70;51.20;;;;;;486798;244;1089;-74
2022/09/25 03:22:30;;;;;;;;;;;21.70;51.30;;;;;;486816;245;2215;-74
2022/09/25 03:24:32;;;;;;;;;;;21.70;51.30;;;;;;486991;244;1124;-74
2022/09/25 03:26:33;;;;;;;;;;;21.70;51.50;;;;;;486815;245;1167;-74
2022/09/25 03:28:34;;;;;;;;;;;21.70;51.30;;;;;;486909;244;1219;-74
2022/09/25 03:30:37;;;;;;;;;;;21.70;51.30;;;;;;486821;245;1148;-74
2022/09/25 03:32:38;;;;;;;;;;;21.70;51.30;;;;;;486863;245;1185;-74
2022/09/25 03:34:39;;;;;;;;;;;21.70;51.40;;;;;;486829;244;1257;-74
2022/09/25 03:36:40;;;;;;;;;;;21.50;51.70;;;;;;486813;245;1115;-74
2022/09/25 03:38:42;;;;;;;;;;;21.40;51.70;;;;;;486814;245;1173;-74
2022/09/25 03:40:43;;;;;;;;;;;21.40;51.90;;;;;;486826;245;1218;-74
2022/09/25 03:42:44;;;;;;;;;;;21.50;51.80;;;;;;486970;244;2190;-74
2022/09/25 03:44:46;;;;;;;;;;;21.40;51.90;;;;;;486793;245;1207;-74
2022/09/25 03:46:47;;;;;;;;;;;21.40;51.90;;;;;;486779;245;1253;-74
2022/09/25 03:48:48;;;;;;;;;;;21.40;51.90;;;;;;487029;244;1119;-74
2022/09/25 03:50:50;;;;;;;;;;;21.40;52.00;;;;;;486705;245;1150;-74
2022/09/25 03:52:51;;;;;;;;;;;21.30;52.10;;;;;;486825;244;1606;-74
2022/09/25 03:54:52;;;;;;;;;;;21.40;52.20;;;;;;486861;244;1218;-74
2022/09/25 03:56:54;;;;;;;;;;;21.30;52.20;;;;;;486681;245;1182;-74
2022/09/25 03:58:55;;;;;;;;;;;21.30;52.30;;;;;;486889;244;1152;-74
2022/09/25 04:00:56;;;;;;;;;;;21.30;52.40;;;;;;486717;245;1233;-74
2022/09/25 04:02:58;;;;;;;;;;;21.20;52.30;;;;;;486862;245;2201;-74
2022/09/25 04:04:59;;;;;;;;;;;21.20;52.50;;;;;;486995;244;1158;-74
2022/09/25 04:07:00;;;;;;;;;;;21.20;52.30;;;;;;486592;245;1261;-74
2022/09/25 04:09:02;;;;;;;;;;;21.30;52.30;;;;;;486933;244;1191;-74
2022/09/25 04:11:03;;;;;;;;;;;21.30;52.30;;;;;;486788;245;1176;-74
2022/09/25 04:13:04;;;;;;;;;;;21.30;52.40;;;;;;486826;245;1158;-74
2022/09/25 04:15:08;;;;;;;;;;;21.30;52.30;;;;;;486862;245;1177;-74
2022/09/25 04:17:07;;;;;;;;;;;21.30;52.30;;;;;;486724;245;1388;-74
2022/09/25 04:19:09;;;;;;;;;;;21.30;52.40;;;;;;486851;244;1365;-74
2022/09/25 04:21:10;;;;;;;;;;;21.30;52.30;;;;;;486789;245;1300;-74
2022/09/25 04:23:11;;;;;;;;;;;21.20;52.30;;;;;;486916;244;1175;-74
2022/09/25 04:25:13;;;;;;;;;;;21.20;52.30;;;;;;486796;245;1315;-74
2022/09/25 04:27:14;;;;;;;;;;;21.20;52.50;;;;;;486955;244;1162;-74
2022/09/25 04:29:16;;;;;;;;;;;21.20;52.40;;;;;;486796;245;1177;-74
2022/09/25 04:31:17;;;;;;;;;;;21.30;52.40;;;;;;486784;245;1427;-74
2022/09/25 04:35:37;;;;;;;;;;;21.20;52.30;;;;;;486879;245;1366;-74
2022/09/25 04:37:38;;;;;;;;;;;21.20;52.30;;;;;;486801;245;1108;-74
2022/09/25 04:39:40;;;;;;;;;;;21.20;52.40;;;;;;486813;245;1193;-74
2022/09/25 04:41:42;;;;;;;;;;;21.20;52.50;;;;;;487069;244;2210;-74
2022/09/25 04:43:42;;;;;;;;;;;21.20;52.50;;;;;;486753;245;1591;-74
2022/09/25 04:45:46;;;;;;;;;;;21.20;52.60;;;;;;486944;244;1094;-74
2022/09/25 04:47:45;;;;;;;;;;;21.20;52.60;;;;;;486965;245;1475;-74
2022/09/25 04:49:46;;;;;;;;;;;21.20;52.40;;;;;;486817;245;1142;-74
2022/09/25 04:51:48;;;;;;;;;;;21.20;52.50;;;;;;486826;245;1206;-74
2022/09/25 04:53:49;;;;;;;;;;;21.20;52.50;;;;;;486880;245;1174;-74
2022/09/25 04:55:50;;;;;;;;;;;21.20;52.40;;;;;;486829;244;1212;-74
2022/09/25 04:57:52;;;;;;;;;;;21.20;52.40;;;;;;486869;245;1253;-74
2022/09/25 04:59:53;;;;;;;;;;;21.20;52.40;;;;;;486835;245;1175;-74
2022/09/25 05:01:54;;;;;;;;;;;21.20;52.50;;;;;;486854;245;2198;-74
2022/09/25 05:03:56;;;;;;;;;;;21.20;52.50;;;;;;486789;245;1292;-74
2022/09/25 05:05:58;;;;;;;;;;;21.20;52.50;;;;;;486877;244;1131;-74
2022/09/25 05:07:58;;;;;;;;;;;21.10;52.50;;;;;;486707;245;1714;-74
2022/09/25 05:10:00;;;;;;;;;;;21.10;52.50;;;;;;486797;245;1100;-74
2022/09/25 05:12:01;;;;;;;;;;;21.10;52.50;;;;;;487049;244;1146;-74
2022/09/25 05:14:02;;;;;;;;;;;21.10;52.60;;;;;;486785;245;1117;-74
2022/09/25 05:16:04;;;;;;;;;;;21.20;52.50;;;;;;486837;244;1129;-74
2022/09/25 05:18:05;;;;;;;;;;;21.20;52.40;;;;;;486846;245;1163;-74
2022/09/25 05:20:06;;;;;;;;;;;21.20;52.40;;;;;;486840;245;1434;-74
2022/09/25 05:22:08;;;;;;;;;;;21.20;52.40;;;;;;487015;244;2195;-74
2022/09/25 05:24:09;;;;;;;;;;;21.10;52.40;;;;;;486847;245;1238;-74
2022/09/25 05:26:10;;;;;;;;;;;21.10;52.40;;;;;;486988;244;1153;-74
2022/09/25 05:28:12;;;;;;;;;;;21.10;52.50;;;;;;486846;245;1153;-74
2022/09/25 05:30:13;;;;;;;;;;;21.10;52.50;;;;;;486792;244;1156;-74
2022/09/25 05:32:14;;;;;;;;;;;21.20;52.20;;;;;;487003;244;1133;-74
2022/09/25 05:34:16;;;;;;;;;;;21.20;52.20;;;;;;486805;245;1151;-74
2022/09/25 05:36:17;;;;;;;;;;;21.30;52.10;;;;;;486952;244;1201;-74
2022/09/25 05:38:18;;;;;;;;;;;21.30;52.00;;;;;;486861;244;1104;-74
2022/09/25 05:40:20;;;;;;;;;;;21.30;52.10;;;;;;486789;245;1119;-74
2022/09/25 05:42:22;;;;;;;;;;;21.30;51.90;;;;;;487105;244;2186;-74
2022/09/25 05:44:23;;;;;;;;;;;21.30;52.10;;;;;;486813;245;1175;-74
2022/09/25 05:46:24;;;;;;;;;;;21.30;52.20;;;;;;486882;245;1417;-74
2022/09/25 05:48:25;;;;;;;;;;;21.20;52.20;;;;;;486810;245;1198;-74
2022/09/25 05:50:27;;;;;;;;;;;21.30;52.00;;;;;;486876;244;1219;-74
2022/09/25 05:52:28;;;;;;;;;;;21.40;52.00;;;;;;487028;244;1274;-74
2022/09/25 05:54:29;;;;;;;;;;;21.30;51.90;;;;;;486827;244;1170;-74
2022/09/25 05:56:31;;;;;;;;;;;21.40;51.70;;;;;;487226;244;1135;-74
2022/09/25 05:58:32;;;;;;;;;;;21.40;51.70;;;;;;486787;245;1232;-74
2022/09/25 06:00:34;;;;;;;;;;;21.40;51.60;;;;;;486765;244;1163;-74
2022/09/25 06:02:35;;;;;;;;;;;21.50;51.50;;;;;;486883;245;2166;-74
2022/09/25 06:04:37;;;;;;;;;;;21.40;51.50;;;;;;486828;245;1163;-74
2022/09/25 06:06:38;;;;;;;;;;;21.40;51.60;;;;;;486829;244;1176;-74
2022/09/25 06:08:39;;;;;;;;;;;21.40;51.40;;;;;;486841;245;1194;-74
2022/09/25 06:10:40;;;;;;;;;;;21.40;51.40;;;;;;486930;244;1141;-74
2022/09/25 06:12:42;;;;;;;;;;;21.40;51.40;;;;;;486838;245;1322;-74
2022/09/25 06:14:43;;;;;;;;;;;21.40;51.40;;;;;;486899;245;1218;-74
2022/09/25 06:16:44;;;;;;;;;;;21.40;51.40;;;;;;486814;245;1133;-74
2022/09/25 06:18:46;;;;;;;;;;;21.50;51.40;;;;;;486842;244;1218;-74
2022/09/25 06:20:48;;;;;;;;;;;21.50;51.40;;;;;;486859;244;1168;-74
2022/09/25 06:22:49;;;;;;;;;;;21.50;51.30;;;;;;486740;245;2171;-74
2022/09/25 06:24:50;;;;;;;;;;;21.40;51.40;;;;;;486942;244;1158;-74
2022/09/25 06:26:52;;;;;;;;;;;21.50;51.40;;;;;;486827;245;1143;-74
2022/09/25 06:28:53;;;;;;;;;;;21.50;51.40;;;;;;486863;244;1142;-74
2022/09/25 06:30:54;;;;;;;;;;;21.50;51.40;;;;;;486875;245;1212;-74
2022/09/25 06:32:56;;;;;;;;;;;21.60;51.30;;;;;;486783;244;1183;-74
2022/09/25 06:34:57;;;;;;;;;;;21.60;51.20;;;;;;486869;245;1112;-74
2022/09/25 06:36:58;;;;;;;;;;;21.60;51.30;;;;;;486828;244;1323;-74
2022/09/25 06:39:00;;;;;;;;;;;21.60;51.30;;;;;;486823;245;1197;-74
2022/09/25 06:41:01;;;;;;;;;;;21.60;51.30;;;;;;486961;244;1160;-74
2022/09/25 06:43:02;;;;;;;;;;;21.60;51.20;;;;;;486781;245;2151;-74
2022/09/25 06:45:04;;;;;;;;;;;21.60;51.40;;;;;;486741;245;1350;-74
2022/09/25 06:47:05;;;;;;;;;;;21.60;51.20;;;;;;486758;245;1162;-74
2022/09/25 06:49:06;;;;;;;;;;;21.60;51.30;;;;;;486915;244;1169;-74
2022/09/25 06:51:08;;;;;;;;;;;21.50;51.40;;;;;;486757;245;1184;-74
2022/09/25 06:53:09;;;;;;;;;;;21.50;51.30;;;;;;486778;245;1139;-74
2022/09/25 06:55:10;;;;;;;;;;;21.50;51.30;;;;;;486878;245;1441;-74
2022/09/25 06:57:12;;;;;;;;;;;21.50;51.40;;;;;;486916;244;1202;-74
2022/09/25 06:59:13;;;;;;;;;;;21.50;51.40;;;;;;486867;244;1213;-74
2022/09/25 07:01:14;;;;;;;;;;;21.50;51.40;;;;;;486820;244;1149;-74
2022/09/25 07:05:35;;;;;;;;;;;21.60;51.30;;;;;;486882;245;1177;-74
2022/09/25 07:07:36;;;;;;;;;;;21.50;51.40;;;;;;486914;244;1172;-74
2022/09/25 07:09:38;;;;;;;;;;;21.50;51.40;;;;;;486856;244;1226;-74
2022/09/25 07:11:42;;;;;;;;;;;21.50;51.20;;;;;;486878;245;1116;-74
2022/09/25 07:13:41;;;;;;;;;;;21.60;51.30;;;;;;486675;245;1602;-74
2022/09/25 07:15:42;;;;;;;;;;;21.60;51.40;;;;;;486815;245;1272;-74
2022/09/25 07:17:44;;;;;;;;;;;21.60;51.30;;;;;;486764;245;1192;-74
2022/09/25 07:19:45;;;;;;;;;;;21.60;51.40;;;;;;486905;245;1130;-74
2022/09/25 07:21:46;;;;;;;;;;;21.60;51.30;;;;;;486839;245;1107;-74
2022/09/25 07:23:48;;;;;;;;;;;21.60;51.40;;;;;;486800;245;2138;-74
2022/09/25 07:25:49;;;;;;;;;;;21.50;51.30;;;;;;486845;245;1156;-74
2022/09/25 07:27:51;;;;;;;;;;;21.60;51.30;;;;;;486868;245;1143;-74
2022/09/25 07:29:52;;;;;;;;;;;21.60;51.40;;;;;;486788;245;1112;-74
2022/09/25 07:31:53;;;;;;;;;;;21.50;51.30;;;;;;486800;245;1149;-74
2022/09/25 07:33:55;;;;;;;;;;;21.60;51.30;;;;;;486778;245;1148;-74
2022/09/25 07:35:56;;;;;;;;;;;21.50;51.30;;;;;;486853;245;1230;-74
2022/09/25 07:37:57;;;;;;;;;;;21.60;51.50;;;;;;486918;244;1235;-74
2022/09/25 07:39:59;;;;;;;;;;;21.50;51.40;;;;;;486828;245;1190;-74
2022/09/25 07:42:00;;;;;;;;;;;21.50;51.40;;;;;;486877;244;1142;-74
2022/09/25 07:44:01;;;;;;;;;;;21.50;51.40;;;;;;486781;245;2193;-74
2022/09/25 07:46:02;;;;;;;;;;;21.50;51.40;;;;;;486996;244;1114;-74
2022/09/25 07:48:05;;;;;;;;;;;21.50;51.40;;;;;;486794;245;1236;-74
2022/09/25 07:50:05;;;;;;;;;;;21.50;51.40;;;;;;486838;245;1400;-74
2022/09/25 07:52:06;;;;;;;;;;;21.60;51.50;;;;;;486815;241;1238;-74
2022/09/25 07:54:08;;;;;;;;;;;21.60;51.50;;;;;;486809;245;1133;-74
2022/09/25 07:56:09;;;;;;;;;;;21.60;51.50;;;;;;487164;244;1140;-74
2022/09/25 07:58:10;;;;;;;;;;;21.50;51.40;;;;;;487009;244;1204;-74
2022/09/25 08:00:12;;;;;;;;;;;21.60;51.50;;;;;;486817;245;1159;-74
2022/09/25 08:02:13;;;;;;;;;;;21.60;51.50;;;;;;487035;244;1168;-74
2022/09/25 08:04:14;;;;;;;;;;;21.60;51.50;;;;;;487138;244;2191;-74
2022/09/25 08:06:16;;;;;;;;;;;21.50;51.40;;;;;;486982;245;1120;-74
2022/09/25 08:08:17;;;;;;;;;;;21.60;51.50;;;;;;486824;245;1138;-74
2022/09/25 08:10:18;;;;;;;;;;;21.60;51.50;;;;;;486839;244;1133;-74
2022/09/25 08:12:22;;;;;;;;;;;21.60;51.50;;;;;;486846;245;1131;-74
2022/09/25 08:14:21;;;;;;;;;;;21.60;51.50;;;;;;486763;245;1472;-74
2022/09/25 08:16:23;;;;;;;;;;;21.60;51.50;;;;;;486935;244;1128;-74
2022/09/25 08:18:24;;;;;;;;;;;21.60;51.50;;;;;;487055;244;1032;-74
2022/09/25 08:20:25;;;;;;;;;;;21.60;51.50;;;;;;486945;245;1202;-74
2022/09/25 08:22:27;;;;;;;;;;;21.50;51.40;;;;;;486851;245;1312;-74
2022/09/25 08:24:28;;;;;;;;;;;21.50;51.60;;;;;;487105;244;1160;-74
2022/09/25 08:26:30;;;;;;;;;;;21.60;51.60;;;;;;486823;245;1174;-74
2022/09/25 08:28:31;;;;;;;;;;;21.60;51.60;;;;;;486921;245;1470;-74
2022/09/25 08:30:32;;;;;;;;;;;21.60;51.50;;;;;;486802;245;1172;-74
2022/09/25 08:32:33;;;;;;;;;;;21.60;51.50;;;;;;486877;245;1157;-74
2022/09/25 08:34:35;;;;;;;;;;;21.60;51.50;;;;;;486769;245;1264;-74
2022/09/25 08:36:36;;;;;;;;;;;21.60;51.50;;;;;;486809;244;1295;-74
2022/09/25 08:38:38;;;;;;;;;;;21.60;51.50;;;;;;486771;245;1221;-74
2022/09/25 08:40:39;;;;;;;;;;;21.60;51.60;;;;;;486924;244;1195;-74
2022/09/25 08:42:40;;;;;;;;;;;21.50;51.70;;;;;;486850;244;2202;-74
2022/09/25 08:44:42;;;;;;;;;;;21.50;51.70;;;;;;486826;245;1346;-74
2022/09/25 08:49:05;;;;;;;;;;;21.60;51.60;;;;;;486810;245;1199;-74
2022/09/25 08:51:05;;;;;;;;;;;21.60;51.70;;;;;;486748;245;1470;-74
2022/09/25 08:53:06;;;;;;;;;;;21.60;51.70;;;;;;486849;244;1187;-74
2022/09/25 08:55:08;;;;;;;;;;;21.60;51.70;;;;;;486831;245;1337;-74
2022/09/25 08:57:09;;;;;;;;;;;21.60;51.70;;;;;;486868;245;1252;-74
2022/09/25 08:59:11;;;;;;;;;;;21.50;51.80;;;;;;486858;245;1257;-74
2022/09/25 09:01:12;;;;;;;;;;;21.50;51.70;;;;;;486830;244;1234;-74
2022/09/25 09:03:13;;;;;;;;;;;21.50;51.60;;;;;;486848;244;2198;-74
2022/09/25 09:05:15;;;;;;;;;;;21.50;51.70;;;;;;486893;244;1213;-74
2022/09/25 09:07:16;;;;;;;;;;;21.50;51.70;;;;;;486860;244;1191;-74
2022/09/25 09:09:17;;;;;;;;;;;21.50;51.80;;;;;;486788;245;1153;-74
2022/09/25 09:11:19;;;;;;;;;;;21.50;51.70;;;;;;487066;244;1314;-74
2022/09/25 09:13:20;;;;;;;;;;;21.60;51.80;;;;;;486845;244;1211;-74
2022/09/25 09:15:21;;;;;;;;;;;21.60;51.70;;;;;;486782;245;1207;-74
2022/09/25 09:17:23;;;;;;;;;;;21.60;51.60;;;;;;486985;244;1188;-74
2022/09/25 09:19:24;;;;;;;;;;;21.60;51.60;;;;;;486933;244;1222;-74
2022/09/25 09:21:25;;;;;;;;;;;21.60;51.60;;;;;;486826;245;1109;-74
2022/09/25 09:23:27;;;;;;;;;;;21.60;51.60;;;;;;486803;244;2186;-74
2022/09/25 09:25:28;;;;;;;;;;;21.60;51.60;;;;;;486842;244;1059;-74
2022/09/25 09:27:29;;;;;;;;;;;21.60;51.50;;;;;;486878;245;1319;-74
2022/09/25 09:29:31;;;;;;;;;;;21.60;51.60;;;;;;486758;245;1125;-74
2022/09/25 09:31:32;;;;;;;;;;;21.60;51.60;;;;;;486864;245;1172;-74
2022/09/25 09:33:33;;;;;;;;;;;21.50;51.70;;;;;;486800;245;1203;-74
2022/09/25 09:35:35;;;;;;;;;;;21.60;51.60;;;;;;486928;244;1196;-74
2022/09/25 09:37:36;;;;;;;;;;;21.50;51.70;;;;;;486800;245;1218;-74
2022/09/25 09:39:37;;;;;;;;;;;21.50;51.60;;;;;;486781;244;1293;-74
2022/09/25 09:41:39;;;;;;;;;;;21.60;51.50;;;;;;486828;245;1268;-74
2022/09/25 09:43:41;;;;;;;;;;;21.60;51.50;;;;;;486979;244;2203;-74
2022/09/25 09:45:43;;;;;;;;;;;21.60;51.50;;;;;;486688;245;1428;-74
2022/09/25 09:47:43;;;;;;;;;;;21.50;51.60;;;;;;486733;245;1486;-74
2022/09/25 09:49:44;;;;;;;;;;;21.50;51.70;;;;;;486821;245;1157;-74
2022/09/25 09:51:45;;;;;;;;;;;21.50;51.70;;;;;;486819;244;1138;-74
2022/09/25 09:53:47;;;;;;;;;;;21.50;51.60;;;;;;486882;245;1242;-74
2022/09/25 09:55:48;;;;;;;;;;;21.50;51.60;;;;;;486874;244;1171;-74
2022/09/25 09:57:50;;;;;;;;;;;21.60;51.60;;;;;;486780;245;1216;-74
2022/09/25 09:59:51;;;;;;;;;;;21.50;51.60;;;;;;486816;245;1422;-74
2022/09/25 10:01:52;;;;;;;;;;;21.50;51.80;;;;;;486851;245;1299;-75
2022/09/25 10:03:53;;;;;;;;;;;21.50;51.90;;;;;;486755;245;2194;-74
2022/09/25 10:05:55;;;;;;;;;;;21.50;51.70;;;;;;486813;244;1172;-74
2022/09/25 10:07:56;;;;;;;;;;;21.50;51.80;;;;;;486834;245;1129;-74
2022/09/25 10:09:57;;;;;;;;;;;21.60;51.70;;;;;;486867;244;1217;-74
2022/09/25 10:11:59;;;;;;;;;;;21.60;51.80;;;;;;486780;245;1178;-74
2022/09/25 10:14:00;;;;;;;;;;;21.60;51.70;;;;;;486788;245;1156;-74
2022/09/25 10:16:02;;;;;;;;;;;21.60;51.80;;;;;;486829;245;1261;-74
2022/09/25 10:18:03;;;;;;;;;;;21.50;51.90;;;;;;486848;245;1248;-74
2022/09/25 10:20:05;;;;;;;;;;;21.50;52.00;;;;;;486882;245;1317;-74
2022/09/25 10:22:06;;;;;;;;;;;21.60;51.80;;;;;;486777;245;1189;-74
2022/09/25 10:24:07;;;;;;;;;;;21.60;51.80;;;;;;486823;245;2151;-74
2022/09/25 10:26:09;;;;;;;;;;;21.60;51.80;;;;;;486928;244;1151;-74
2022/09/25 10:28:10;;;;;;;;;;;21.60;51.70;;;;;;486794;245;1194;-74
2022/09/25 10:30:12;;;;;;;;;;;21.60;51.80;;;;;;486802;244;1199;-74
2022/09/25 10:32:13;;;;;;;;;;;21.60;51.80;;;;;;486795;245;1229;-74
2022/09/25 10:34:15;;;;;;;;;;;21.60;51.80;;;;;;486945;244;1316;-74
2022/09/25 10:36:16;;;;;;;;;;;21.60;51.80;;;;;;486900;245;1334;-74
2022/09/25 10:38:17;;;;;;;;;;;21.60;51.80;;;;;;486850;244;1225;-74
2022/09/25 10:40:18;;;;;;;;;;;21.60;51.80;;;;;;486821;245;1128;-74
2022/09/25 10:42:20;;;;;;;;;;;21.60;51.70;;;;;;486791;245;1142;-74
2022/09/25 10:44:21;;;;;;;;;;;21.60;51.80;;;;;;486918;244;2182;-74
2022/09/25 10:50:09;;;;;;;;;;;21.70;51.70;;;;;;486863;245;1236;-74
2022/09/25 10:50:44;;;;;;;;;;;21.60;51.70;;;;;;471217;244;1293;-74
2022/09/25 10:52:49;;;;;;;;;;;21.60;51.80;;;;;;486813;245;1168;-74
2022/09/25 10:54:51;;;;;;;;;;;21.70;51.80;;;;;;486800;244;1253;-74
2022/09/25 10:56:52;;;;;;;;;;;21.70;51.80;;;;;;486806;245;1236;-74
2022/09/25 10:58:54;;;;;;;;;;;21.60;51.80;;;;;;486835;244;1314;-74
2022/09/25 11:00:56;;;;;;;;;;;21.60;51.80;;;;;;486796;245;1182;-74
2022/09/25 11:02:57;;;;;;;;;;;21.60;51.80;;;;;;486739;245;1507;-74
2022/09/25 11:04:58;;;;;;;;;;;21.70;51.70;;;;;;486716;245;2159;-74
2022/09/25 11:07:00;;;;;;;;;;;21.70;51.70;;;;;;486821;245;1155;-74
2022/09/25 11:09:01;;;;;;;;;;;21.70;51.80;;;;;;486789;245;1172;-74
2022/09/25 11:11:02;;;;;;;;;;;21.60;51.80;;;;;;486852;244;1225;-74
2022/09/25 11:13:05;;;;;;;;;;;21.60;51.70;;;;;;486858;245;1174;-74
2022/09/25 11:15:08;;;;;;;;;;;21.60;51.80;;;;;;486718;245;1533;-74
2022/09/25 11:17:08;;;;;;;;;;;21.60;52.00;;;;;;486663;245;1406;-74
2022/09/25 11:19:08;;;;;;;;;;;21.60;52.00;;;;;;486814;245;1500;-74
2022/09/25 11:21:09;;;;;;;;;;;21.50;52.00;;;;;;486858;245;1084;-74
2022/09/25 11:23:12;;;;;;;;;;;21.50;52.00;;;;;;486805;245;1147;-74
2022/09/25 11:25:12;;;;;;;;;;;21.60;52.00;;;;;;486944;244;2209;-74
2022/09/25 11:27:13;;;;;;;;;;;21.60;51.90;;;;;;486853;245;1106;-74
2022/09/25 11:29:15;;;;;;;;;;;21.60;51.80;;;;;;486822;245;1145;-74
2022/09/25 11:31:16;;;;;;;;;;;21.60;51.80;;;;;;486887;245;1399;-74
2022/09/25 11:33:17;;;;;;;;;;;21.60;51.80;;;;;;486875;245;1151;-74
2022/09/25 11:35:19;;;;;;;;;;;21.60;51.90;;;;;;486804;244;1085;-74
2022/09/25 11:37:20;;;;;;;;;;;21.60;51.90;;;;;;486931;244;1119;-74
2022/09/25 11:41:42;;;;;;;;;;;21.70;51.90;;;;;;486815;245;1188;-74
2022/09/25 11:43:42;;;;;;;;;;;21.60;51.80;;;;;;486733;245;2193;-74
2022/09/25 11:45:45;;;;;;;;;;;21.60;51.80;;;;;;486803;245;1146;-74
2022/09/25 11:47:45;;;;;;;;;;;21.70;51.80;;;;;;486850;245;1469;-74
2022/09/25 11:49:46;;;;;;;;;;;21.60;51.80;;;;;;487088;244;1104;-74
2022/09/25 11:51:48;;;;;;;;;;;21.60;51.80;;;;;;486997;244;1122;-74
2022/09/25 11:53:49;;;;;;;;;;;21.60;52.00;;;;;;486823;245;1189;-74
2022/09/25 11:55:50;;;;;;;;;;;21.60;51.90;;;;;;487022;244;1224;-74
2022/09/25 11:57:52;;;;;;;;;;;21.60;52.00;;;;;;486787;245;1251;-74
2022/09/25 11:59:54;;;;;;;;;;;21.60;52.00;;;;;;486840;244;1138;-74
2022/09/25 12:01:55;;;;;;;;;;;21.60;51.90;;;;;;486847;245;1490;-74
2022/09/25 12:03:56;;;;;;;;;;;21.60;51.90;;;;;;486773;245;2198;-74
2022/09/25 12:05:57;;;;;;;;;;;21.60;52.00;;;;;;486838;244;1129;-74
2022/09/25 12:07:59;;;;;;;;;;;21.60;52.00;;;;;;486935;244;1124;-74
2022/09/25 12:10:02;;;;;;;;;;;21.60;52.20;;;;;;486948;244;1505;-74
2022/09/25 12:12:03;;;;;;;;;;;21.60;52.10;;;;;;486687;245;1407;-74
2022/09/25 12:14:04;;;;;;;;;;;21.60;52.10;;;;;;486766;245;1185;-74